createdAt,value
2023-02-16T00:02:34.202Z,42.57
2023-02-16T00:05:25.954Z,40.53
2023-02-16T00:08:12.602Z,35.03
2023-02-16T00:11:16.844Z,38.33
2023-02-16T00:14:04.188Z,31.97
2023-02-16T00:16:50.990Z,32.23
2023-02-16T00:19:40.635Z,45.17
2023-02-16T00:22:27.245Z,40.83
2023-02-16T00:25:13.968Z,40.37
2023-02-16T00:28:01.914Z,36.53
2023-02-16T00:30:50.308Z,44.37
2023-02-16T00:33:37.147Z,30.47
2023-02-16T00:36:25.746Z,42.23
2023-02-16T00:39:12.560Z,35.90
2023-02-16T00:42:06.204Z,39.00
2023-02-16T00:44:56.371Z,33.43
2023-02-16T00:47:48.418Z,35.33
2023-02-16T00:50:36.648Z,39.27
2023-02-16T00:53:24.760Z,38.30
2023-02-16T00:56:18.409Z,33.47
2023-02-16T00:59:09.182Z,43.00
2023-02-16T01:01:58.401Z,30.70
2023-02-16T01:04:45.470Z,36.90
2023-02-16T01:07:49.610Z,35.13
2023-02-16T01:11:07.869Z,38.87
2023-02-16T01:13:56.084Z,40.43
2023-02-16T01:16:44.177Z,34.87
2023-02-16T01:19:31.144Z,33.63
2023-02-16T01:22:18.222Z,31.80
2023-02-16T01:25:04.892Z,33.90
2023-02-16T01:27:53.064Z,34.30
2023-02-16T01:30:39.963Z,32.57
2023-02-16T01:33:26.835Z,30.80
2023-02-16T01:36:24.913Z,34.37
2023-02-16T01:39:14.556Z,34.50
2023-02-16T01:42:16.243Z,34.33
2023-02-16T01:45:10.433Z,36.10
2023-02-16T01:48:03.512Z,33.63
2023-02-16T01:51:00.645Z,32.67
2023-02-16T01:53:52.106Z,45.23
2023-02-16T01:56:44.903Z,29.87
2023-02-16T01:59:41.392Z,39.77
2023-02-16T02:02:35.605Z,34.67
2023-02-16T02:05:36.619Z,38.03
2023-02-16T02:08:34.600Z,26.80
2023-02-16T02:11:28.315Z,35.00
2023-02-16T02:14:20.469Z,34.03
2023-02-16T02:17:10.821Z,32.80
2023-02-16T02:20:05.557Z,41.53
2023-02-16T02:23:33.215Z,44.70
2023-02-16T02:26:59.873Z,33.80
2023-02-16T02:30:20.381Z,38.33
2023-02-16T02:33:31.516Z,37.03
2023-02-16T02:36:29.961Z,41.17
2023-02-16T02:39:29.696Z,42.43
2023-02-16T02:42:26.397Z,44.60
2023-02-16T02:45:19.923Z,39.50
2023-02-16T02:48:06.498Z,41.30
2023-02-16T02:51:15.691Z,38.53
2023-02-16T02:54:24.435Z,45.90
2023-02-16T02:57:50.835Z,36.33
2023-02-16T03:00:44.211Z,32.73
2023-02-16T03:03:33.423Z,35.90
2023-02-16T03:06:25.226Z,39.73
2023-02-16T03:09:14.323Z,42.40
2023-02-16T03:12:22.104Z,38.07
2023-02-16T03:15:11.630Z,40.13
2023-02-16T03:18:18.476Z,40.07
2023-02-16T03:21:23.490Z,38.13
2023-02-16T03:24:34.238Z,33.70
2023-02-16T03:27:42.979Z,42.57
2023-02-16T03:30:31.845Z,47.97
2023-02-16T03:33:18.989Z,41.33
2023-02-16T03:36:06.469Z,42.70
2023-02-16T03:38:53.280Z,44.37
2023-02-16T03:41:42.992Z,38.87
2023-02-16T03:44:29.583Z,37.60
2023-02-16T03:47:17.781Z,42.37
2023-02-16T03:50:04.961Z,44.97
2023-02-16T03:52:51.377Z,48.70
2023-02-16T03:55:40.164Z,38.40
2023-02-16T03:58:27.428Z,38.13
2023-02-16T04:01:14.401Z,34.80
2023-02-16T04:04:02.545Z,44.63
2023-02-16T04:06:49.233Z,44.27
2023-02-16T04:09:36.051Z,39.90
2023-02-16T04:12:37.668Z,43.07
2023-02-16T04:15:27.120Z,39.63
2023-02-16T04:18:13.808Z,39.63
2023-02-16T04:21:02.436Z,41.20
2023-02-16T04:23:49.336Z,37.00
2023-02-16T04:26:36.181Z,41.17
2023-02-16T04:29:23.033Z,44.30
2023-02-16T04:32:09.871Z,44.10
2023-02-16T04:34:56.456Z,42.53
2023-02-16T04:37:44.977Z,44.13
2023-02-16T04:40:31.563Z,41.47
2023-02-16T04:43:18.244Z,36.20
2023-02-16T04:46:05.244Z,38.80
2023-02-16T04:48:52.114Z,45.63
2023-02-16T04:51:39.953Z,38.30
2023-02-16T04:54:28.692Z,41.03
2023-02-16T04:57:16.709Z,43.20
2023-02-16T05:00:03.526Z,38.90
2023-02-16T05:02:49.945Z,41.30
2023-02-16T05:05:36.939Z,41.23
2023-02-16T05:08:23.481Z,39.17
2023-02-16T05:11:29.586Z,35.70
2023-02-16T05:14:38.245Z,35.60
2023-02-16T05:17:26.825Z,33.10
2023-02-16T05:20:14.164Z,34.23
2023-02-16T05:23:00.964Z,32.87
2023-02-16T05:25:47.809Z,36.23
2023-02-16T05:28:36.063Z,43.77
2023-02-16T05:31:23.745Z,41.27
2023-02-16T05:34:10.724Z,34.87
2023-02-16T05:36:57.553Z,34.37
2023-02-16T05:39:44.175Z,31.17
2023-02-16T05:42:31.120Z,33.70
2023-02-16T05:45:19.176Z,39.63
2023-02-16T05:48:05.644Z,29.30
2023-02-16T05:50:55.699Z,26.93
2023-02-16T05:53:42.738Z,36.13
2023-02-16T05:56:30.415Z,32.40
2023-02-16T05:59:17.772Z,37.70
2023-02-16T06:02:05.887Z,33.37
2023-02-16T06:04:52.618Z,30.03
2023-02-16T06:07:39.463Z,39.33
2023-02-16T06:10:27.100Z,34.93
2023-02-16T06:13:13.676Z,35.20
2023-02-16T06:16:00.517Z,37.93
2023-02-16T06:18:48.646Z,32.83
2023-02-16T06:21:36.459Z,34.57
2023-02-16T06:24:23.157Z,33.37
2023-02-16T06:27:09.946Z,31.83
2023-02-16T06:29:56.861Z,34.93
2023-02-16T06:32:43.370Z,29.60
2023-02-16T06:35:31.763Z,35.23
2023-02-16T06:38:18.575Z,29.47
2023-02-16T06:41:06.054Z,27.97
2023-02-16T06:43:52.655Z,32.57
2023-02-16T06:46:39.615Z,31.20
2023-02-16T06:49:27.863Z,30.23
2023-02-16T06:52:16.166Z,35.57
2023-02-16T06:55:02.939Z,37.77
2023-02-16T06:57:49.787Z,44.37
2023-02-16T07:00:36.838Z,29.43
2023-02-16T07:03:23.349Z,28.90
2023-02-16T07:06:10.124Z,36.27
2023-02-16T07:08:58.211Z,37.50
2023-02-16T07:11:44.603Z,30.83
2023-02-16T07:14:32.326Z,32.80
2023-02-16T07:17:19.123Z,30.87
2023-02-16T07:20:06.786Z,36.70
2023-02-16T07:22:53.466Z,33.23
2023-02-16T07:25:41.778Z,35.47
2023-02-16T07:28:28.770Z,30.17
2023-02-16T07:31:17.367Z,32.93
2023-02-16T07:34:03.927Z,34.10
2023-02-16T07:36:51.026Z,35.97
2023-02-16T07:39:37.707Z,32.50
2023-02-16T07:42:25.514Z,42.10
2023-02-16T07:45:12.312Z,35.03
2023-02-16T07:47:59.056Z,34.03
2023-02-16T07:50:45.882Z,36.27
2023-02-16T07:53:33.041Z,26.23
2023-02-16T07:56:25.313Z,28.40
2023-02-16T07:59:16.250Z,32.17
2023-02-16T08:02:03.101Z,35.73
2023-02-16T08:04:52.959Z,34.23
2023-02-16T08:07:41.127Z,36.50
2023-02-16T08:10:27.980Z,36.97
2023-02-16T08:13:14.719Z,35.53
2023-02-16T08:16:03.183Z,30.93
2023-02-16T08:18:50.897Z,31.10
2023-02-16T08:21:37.401Z,33.37
2023-02-16T08:24:25.074Z,32.33
2023-02-16T08:27:12.038Z,29.00
2023-02-16T08:29:58.793Z,45.17
2023-02-16T08:32:49.734Z,29.87
2023-02-16T08:35:39.580Z,39.27
2023-02-16T08:38:26.377Z,39.93
2023-02-16T08:41:13.254Z,33.80
2023-02-16T08:44:01.555Z,32.73
2023-02-16T08:46:49.823Z,37.57
2023-02-16T08:49:38.396Z,39.47
2023-02-16T08:52:25.262Z,41.47
2023-02-16T08:55:12.169Z,38.80
2023-02-16T08:58:00.861Z,41.37
2023-02-16T09:00:48.217Z,35.50
2023-02-16T09:03:35.832Z,42.37
2023-02-16T09:06:24.411Z,38.57
2023-02-16T09:09:11.779Z,35.10
2023-02-16T09:11:58.730Z,35.80
2023-02-16T09:14:45.599Z,39.57
2023-02-16T09:17:32.154Z,41.83
2023-02-16T09:20:20.438Z,44.97
2023-02-16T09:23:10.673Z,44.73
2023-02-16T09:25:57.326Z,48.13
2023-02-16T09:28:44.986Z,40.47
2023-02-16T09:31:34.392Z,35.53
2023-02-16T09:34:23.232Z,42.20
2023-02-16T09:37:10.110Z,44.20
2023-02-16T09:39:58.210Z,44.57
2023-02-16T09:42:57.035Z,45.63
2023-02-16T09:45:47.697Z,50.87
2023-02-16T09:48:38.644Z,38.50
2023-02-16T09:51:34.518Z,50.07
2023-02-16T09:54:32.539Z,47.23
2023-02-16T09:57:28.740Z,45.77
2023-02-16T10:00:30.749Z,43.53
2023-02-16T10:03:28.964Z,48.00
2023-02-16T10:06:37.410Z,46.87
2023-02-16T10:09:26.077Z,44.97
2023-02-16T10:12:20.276Z,38.17
2023-02-16T10:15:15.230Z,40.90
2023-02-16T10:18:07.502Z,43.47
2023-02-16T10:20:57.657Z,48.67
2023-02-16T10:23:48.283Z,46.13
2023-02-16T10:26:39.781Z,42.60
2023-02-16T10:29:27.341Z,35.20
2023-02-16T10:32:26.106Z,39.80
2023-02-16T10:35:17.449Z,41.37
2023-02-16T10:38:10.950Z,48.57
2023-02-16T10:41:05.003Z,48.77
2023-02-16T10:43:56.921Z,46.57
2023-02-16T10:46:47.727Z,42.17
2023-02-16T10:49:37.223Z,39.27
2023-02-16T10:52:24.488Z,46.27
2023-02-16T10:55:12.958Z,41.27
2023-02-16T10:58:01.613Z,42.83
2023-02-16T11:00:55.731Z,40.10
2023-02-16T11:03:47.821Z,41.97
2023-02-16T11:06:36.653Z,44.67
2023-02-16T11:09:29.444Z,42.57
2023-02-16T11:12:23.991Z,45.00
2023-02-16T11:15:24.556Z,40.37
2023-02-16T11:18:29.839Z,42.10
2023-02-16T11:21:16.707Z,45.27
2023-02-16T11:24:04.667Z,43.33
2023-02-16T11:27:01.392Z,46.30
2023-02-16T11:29:47.883Z,38.60
2023-02-16T11:32:35.684Z,43.67
2023-02-16T11:35:22.606Z,38.27
2023-02-16T11:38:26.925Z,45.53
2023-02-16T11:41:14.893Z,38.83
2023-02-16T11:44:03.436Z,38.33
2023-02-16T11:46:50.234Z,45.17
2023-02-16T11:49:39.048Z,43.07
2023-02-16T11:52:30.623Z,39.93
2023-02-16T11:55:27.000Z,44.83
2023-02-16T11:58:20.274Z,42.13
2023-02-16T12:01:21.460Z,40.97
2023-02-16T12:04:19.203Z,39.80
2023-02-16T12:07:16.591Z,41.83
2023-02-16T12:10:08.887Z,45.33
2023-02-16T12:13:04.151Z,39.93
2023-02-16T12:16:00.474Z,39.13
2023-02-16T12:19:00.187Z,41.10
2023-02-16T12:21:49.525Z,45.70
2023-02-16T12:24:47.883Z,43.70
2023-02-16T12:27:40.741Z,42.37
2023-02-16T12:30:38.202Z,38.47
2023-02-16T12:33:38.267Z,40.43
2023-02-16T12:36:44.350Z,40.20
2023-02-16T12:39:37.576Z,45.77
2023-02-16T12:42:49.590Z,39.67
2023-02-16T12:45:40.901Z,38.97
2023-02-16T12:48:40.365Z,40.53
2023-02-16T12:51:30.984Z,39.63
2023-02-16T12:54:22.269Z,37.17
2023-02-16T12:57:14.758Z,38.03
2023-02-16T13:00:09.177Z,40.50
2023-02-16T13:03:05.020Z,36.93
2023-02-16T13:06:03.589Z,41.17
2023-02-16T13:08:58.165Z,39.77
2023-02-16T13:11:50.362Z,38.40
2023-02-16T13:14:43.145Z,34.00
2023-02-16T13:17:35.744Z,42.23
2023-02-16T13:20:24.621Z,39.43
2023-02-16T13:23:31.134Z,36.70
2023-02-16T13:26:29.522Z,33.43
2023-02-16T13:29:41.499Z,36.97
2023-02-16T13:32:44.948Z,42.37
2023-02-16T13:36:03.613Z,39.63
2023-02-16T13:39:42.208Z,35.87
2023-02-16T13:42:58.697Z,31.67
2023-02-16T13:45:48.072Z,34.90
2023-02-16T13:48:40.592Z,34.70
2023-02-16T13:51:31.049Z,39.50
2023-02-16T13:54:28.725Z,34.60
2023-02-16T13:57:55.393Z,35.90
2023-02-16T14:00:43.970Z,39.07
2023-02-16T14:03:39.474Z,32.13
2023-02-16T14:06:32.987Z,35.07
2023-02-16T14:09:37.440Z,34.67
2023-02-16T14:12:31.423Z,32.23
2023-02-16T14:15:21.205Z,35.23
2023-02-16T14:18:22.237Z,34.40
2023-02-16T14:21:19.803Z,34.17
2023-02-16T14:24:12.266Z,35.33
2023-02-16T14:27:01.203Z,38.17
2023-02-16T14:29:57.548Z,31.57
2023-02-16T14:32:49.983Z,32.00
2023-02-16T14:35:39.533Z,32.60
2023-02-16T14:38:30.216Z,32.73
2023-02-16T14:41:28.522Z,32.63
2023-02-16T14:44:33.424Z,32.53
2023-02-16T14:47:35.035Z,32.60
2023-02-16T14:50:38.073Z,31.37
2023-02-16T14:53:55.417Z,31.77
2023-02-16T14:56:46.790Z,33.87
2023-02-16T14:59:40.598Z,30.57
2023-02-16T15:02:33.928Z,30.23
2023-02-16T15:05:23.045Z,32.87
2023-02-16T15:08:13.228Z,38.53
2023-02-16T15:10:59.814Z,34.13
2023-02-16T15:13:47.147Z,33.27
2023-02-16T15:16:34.748Z,30.53
2023-02-16T15:19:29.710Z,37.77
2023-02-16T15:22:22.219Z,34.60
2023-02-16T15:25:23.651Z,34.83
2023-02-16T15:28:20.276Z,32.70
2023-02-16T15:31:09.505Z,35.97
2023-02-16T15:33:58.433Z,28.17
2023-02-16T15:36:46.718Z,29.63
2023-02-16T15:39:48.285Z,30.93
2023-02-16T15:42:45.336Z,35.27
2023-02-16T15:45:35.492Z,30.77
2023-02-16T15:48:28.682Z,34.30
2023-02-16T15:51:18.424Z,33.57
2023-02-16T15:54:09.051Z,28.37
2023-02-16T15:56:58.336Z,30.23
2023-02-16T15:59:48.616Z,29.17
2023-02-16T16:02:39.445Z,29.77
2023-02-16T16:05:28.861Z,27.70
2023-02-16T16:08:18.749Z,29.77
2023-02-16T16:11:07.600Z,30.03
2023-02-16T16:13:54.542Z,34.67
2023-02-16T16:16:41.413Z,28.67
2023-02-16T16:19:35.085Z,30.50
2023-02-16T16:22:38.542Z,28.07
2023-02-16T16:25:39.008Z,30.47
2023-02-16T16:28:40.504Z,28.10
2023-02-16T16:31:57.364Z,29.23
2023-02-16T16:34:48.116Z,27.77
2023-02-16T16:37:38.398Z,24.07
2023-02-16T16:40:34.731Z,31.80
2023-02-16T16:43:24.638Z,32.80
2023-02-16T16:46:21.658Z,28.67
2023-02-16T16:49:16.199Z,32.63
2023-02-16T16:52:04.435Z,29.50
2023-02-16T16:54:51.969Z,27.83
2023-02-16T16:57:39.100Z,31.47
2023-02-16T17:00:32.559Z,28.63
2023-02-16T17:03:23.501Z,36.03
2023-02-16T17:06:14.724Z,31.37
2023-02-16T17:09:08.854Z,29.27
2023-02-16T17:12:00.579Z,30.90
2023-02-16T17:14:49.355Z,28.93
2023-02-16T17:17:38.544Z,25.67
2023-02-16T17:20:27.028Z,32.23
2023-02-16T17:23:14.967Z,31.03
2023-02-16T17:26:01.357Z,29.10
2023-02-16T17:28:48.068Z,33.70
2023-02-16T17:31:35.281Z,30.40
2023-02-16T17:34:22.023Z,30.17
2023-02-16T17:37:11.658Z,30.77
2023-02-16T17:39:58.158Z,28.97
2023-02-16T17:42:44.921Z,30.53
2023-02-16T17:45:31.674Z,31.30
2023-02-16T17:48:21.345Z,35.57
2023-02-16T17:51:15.424Z,33.73
2023-02-16T17:54:05.494Z,33.13
2023-02-16T17:56:52.864Z,31.40
2023-02-16T17:59:41.351Z,27.33
2023-02-16T18:02:29.036Z,34.50
2023-02-16T18:05:15.591Z,30.40
2023-02-16T18:08:02.287Z,35.57
2023-02-16T18:10:52.915Z,33.27
2023-02-16T18:13:40.452Z,31.47
2023-02-16T18:16:29.060Z,35.57
2023-02-16T18:19:16.977Z,30.07
2023-02-16T18:22:05.285Z,30.37
2023-02-16T18:24:57.495Z,25.70
2023-02-16T18:27:48.127Z,26.37
2023-02-16T18:30:35.792Z,30.03
2023-02-16T18:33:24.385Z,27.60
2023-02-16T18:36:12.387Z,27.47
2023-02-16T18:39:00.197Z,28.40
2023-02-16T18:41:47.456Z,35.50
2023-02-16T18:44:36.036Z,29.40
2023-02-16T18:47:23.580Z,29.97
2023-02-16T18:50:13.078Z,30.47
2023-02-16T18:53:01.095Z,27.00
2023-02-16T18:55:48.437Z,28.63
2023-02-16T18:58:36.109Z,30.10
2023-02-16T19:01:30.190Z,28.80
2023-02-16T19:04:16.986Z,31.07
2023-02-16T19:07:03.703Z,28.70
2023-02-16T19:09:50.740Z,28.00
2023-02-16T19:12:38.024Z,25.53
2023-02-16T19:15:25.119Z,28.67
2023-02-16T19:18:13.448Z,27.23
2023-02-16T19:21:00.001Z,26.47
2023-02-16T19:23:47.332Z,28.93
2023-02-16T19:26:34.392Z,27.53
2023-02-16T19:29:20.910Z,32.70
2023-02-16T19:32:07.686Z,21.80
2023-02-16T19:34:55.915Z,28.07
2023-02-16T19:37:42.877Z,23.10
2023-02-16T19:40:29.652Z,31.07
2023-02-16T19:43:16.328Z,35.53
2023-02-16T19:46:03.797Z,29.60
2023-02-16T19:48:50.794Z,37.90
2023-02-16T19:51:39.311Z,30.20
2023-02-16T19:54:25.971Z,33.27
2023-02-16T19:57:12.807Z,33.43
2023-02-16T19:59:59.698Z,25.30
2023-02-16T20:02:46.444Z,33.70
2023-02-16T20:05:33.712Z,28.70
2023-02-16T20:08:21.776Z,30.17
2023-02-16T20:11:08.889Z,31.30
2023-02-16T20:13:56.568Z,27.03
2023-02-16T20:16:45.070Z,26.37
2023-02-16T20:19:31.681Z,30.77
2023-02-16T20:22:18.594Z,29.27
2023-02-16T20:25:07.111Z,29.90
2023-02-16T20:27:53.928Z,27.20
2023-02-16T20:30:43.958Z,29.17
2023-02-16T20:33:30.894Z,29.00
2023-02-16T20:36:18.054Z,28.30
2023-02-16T20:39:05.466Z,31.80
2023-02-16T20:41:53.418Z,30.73
2023-02-16T20:44:40.344Z,32.13
2023-02-16T20:47:26.777Z,28.33
2023-02-16T20:50:13.431Z,28.07
2023-02-16T20:53:00.109Z,28.03
2023-02-16T20:55:46.845Z,26.67
2023-02-16T20:58:36.774Z,31.70
2023-02-16T21:01:26.852Z,30.47
2023-02-16T21:04:15.029Z,34.00
2023-02-16T21:07:01.921Z,27.50
2023-02-16T21:09:48.706Z,30.60
2023-02-16T21:12:37.644Z,30.07
2023-02-16T21:15:40.388Z,34.47
2023-02-16T21:18:28.708Z,31.33
2023-02-16T21:21:16.434Z,38.10
2023-02-16T21:24:07.802Z,29.73
2023-02-16T21:26:57.163Z,28.93
2023-02-16T21:29:44.460Z,32.37
2023-02-16T21:32:32.612Z,37.17
2023-02-16T21:35:19.302Z,29.73
2023-02-16T21:38:05.960Z,33.37
2023-02-16T21:41:10.016Z,32.97
2023-02-16T21:44:00.840Z,32.87
2023-02-16T21:46:48.858Z,31.40
2023-02-16T21:49:35.812Z,29.90
2023-02-16T21:52:22.543Z,29.33
2023-02-16T21:55:28.909Z,37.63
2023-02-16T21:58:15.677Z,34.03
2023-02-16T22:01:02.575Z,32.20
2023-02-16T22:03:49.420Z,29.77
2023-02-16T22:06:41.084Z,29.83
2023-02-16T22:09:27.975Z,31.27
2023-02-16T22:12:14.680Z,31.67
2023-02-16T22:15:01.555Z,32.77
2023-02-16T22:17:49.560Z,32.93
2023-02-16T22:20:36.332Z,34.63
2023-02-16T22:23:24.544Z,29.73
2023-02-16T22:26:22.419Z,31.97
2023-02-16T22:29:09.977Z,38.93
2023-02-16T22:31:56.926Z,33.33
2023-02-16T22:34:43.496Z,29.57
2023-02-16T22:37:31.630Z,32.73
2023-02-16T22:40:21.759Z,32.83
2023-02-16T22:43:09.443Z,30.70
2023-02-16T22:45:56.171Z,29.57
2023-02-16T22:48:43.784Z,37.23
2023-02-16T22:51:31.178Z,29.33
2023-02-16T22:54:17.728Z,31.60
2023-02-16T22:57:07.253Z,31.40
2023-02-16T22:59:53.684Z,31.03
2023-02-16T23:02:40.687Z,31.53
2023-02-16T23:05:27.309Z,30.47
2023-02-16T23:08:14.200Z,29.10
2023-02-16T23:11:05.433Z,28.13
2023-02-16T23:13:53.585Z,40.37
2023-02-16T23:16:40.278Z,32.93
2023-02-16T23:19:27.789Z,28.93
2023-02-16T23:22:14.188Z,30.47
2023-02-16T23:25:18.380Z,26.77
2023-02-16T23:28:06.146Z,29.27
2023-02-16T23:30:58.029Z,34.63
2023-02-16T23:33:44.650Z,29.43
2023-02-16T23:36:31.895Z,29.47
2023-02-16T23:39:20.112Z,29.77
2023-02-16T23:42:07.088Z,30.73
2023-02-16T23:44:55.495Z,31.50
2023-02-16T23:47:43.522Z,27.60
2023-02-16T23:50:30.448Z,32.30
2023-02-16T23:53:17.648Z,29.93
2023-02-16T23:56:07.094Z,32.27
2023-02-16T23:58:54.294Z,29.67
